Otto, New York
Current Conditions -  °F | °C
As of 4:53 PM on Thursday 27 Nov 2014 (Local Time) from KDKK Reporting Station
Overcast Overcast  
Wind Chill: 25°   Ceiling: 3400
Heat Index: 34°   Visibility: 10mi
Dew Point: 25°   Wind: 14mph
Humidity: 70%   Direction: 250°WSW
Pressure: 30.07"   Gusts: NA
Location:  42.36°N, 78.83°W
Report Text: KDKK 272153Z AUTO 25012KT 10SM FEW019 BKN034 OVC050 01/M04 A3007 RMK AO2 SNB13E37 SLP190 P0000 T00111039
Loading
Personal Weather Stations






























Interactive Weather Map New forecast layout! Learn more

10-Day Weather Forecast

Advertisements
Track Severe Weather on mobile